createdAt,value
2023-06-17T00:00:10.631Z,13.80
2023-06-17T00:02:38.779Z,13.80
2023-06-17T00:05:07.829Z,13.90
2023-06-17T00:07:35.974Z,13.90
2023-06-17T00:10:04.014Z,13.90
2023-06-17T00:12:33.151Z,13.90
2023-06-17T00:15:03.264Z,13.90
2023-06-17T00:17:32.313Z,14.00
2023-06-17T00:20:02.280Z,14.00
2023-06-17T00:22:31.117Z,14.00
2023-06-17T00:24:59.642Z,14.10
2023-06-17T00:27:27.704Z,14.10
2023-06-17T00:29:59.184Z,14.10
2023-06-17T00:32:28.729Z,14.10
2023-06-17T00:34:57.270Z,14.10
2023-06-17T00:37:25.589Z,14.10
2023-06-17T00:39:54.023Z,14.10
2023-06-17T00:42:22.514Z,14.10
2023-06-17T00:44:50.590Z,14.10
2023-06-17T00:47:18.682Z,14.10
2023-06-17T00:49:48.965Z,14.10
2023-06-17T00:52:39.403Z,14.10
2023-06-17T00:55:07.914Z,14.10
2023-06-17T00:57:36.510Z,14.00
2023-06-17T01:00:07.563Z,14.00
2023-06-17T01:02:35.599Z,14.00
2023-06-17T01:05:05.912Z,14.00
2023-06-17T01:07:41.250Z,14.00
2023-06-17T01:10:15.127Z,14.00
2023-06-17T01:12:44.694Z,13.90
2023-06-17T01:15:14.673Z,13.90
2023-06-17T01:17:45.095Z,13.90
2023-06-17T01:20:16.657Z,13.90
2023-06-17T01:22:48.832Z,13.80
2023-06-17T01:25:20.057Z,13.80
2023-06-17T01:27:50.397Z,13.80
2023-06-17T01:30:18.879Z,13.70
2023-06-17T01:32:47.912Z,13.70
2023-06-17T01:35:18.328Z,13.60
2023-06-17T01:37:49.732Z,13.50
2023-06-17T01:40:23.972Z,13.50
2023-06-17T01:42:55.142Z,13.50
2023-06-17T01:45:24.013Z,13.40
2023-06-17T01:47:52.188Z,13.40
2023-06-17T01:50:21.085Z,13.40
2023-06-17T01:52:49.391Z,13.40
2023-06-17T01:55:20.855Z,13.40
2023-06-17T01:57:49.261Z,13.30
2023-06-17T02:00:18.045Z,13.30
2023-06-17T02:02:55.820Z,13.30
2023-06-17T02:05:29.820Z,13.20
2023-06-17T02:08:00.730Z,13.20
2023-06-17T02:10:33.347Z,13.20
2023-06-17T02:13:05.058Z,13.20
2023-06-17T02:15:33.524Z,13.10
2023-06-17T02:18:01.729Z,13.10
2023-06-17T02:20:29.990Z,13.10
2023-06-17T02:22:58.005Z,13.10
2023-06-17T02:25:26.433Z,13.10
2023-06-17T02:27:55.747Z,13.00
2023-06-17T02:30:24.404Z,13.00
2023-06-17T02:32:52.621Z,13.00
2023-06-17T02:35:22.089Z,13.00
2023-06-17T02:37:50.516Z,12.90
2023-06-17T02:40:19.432Z,12.90
2023-06-17T02:42:47.743Z,12.90
2023-06-17T02:45:19.053Z,12.80
2023-06-17T02:47:48.473Z,12.80
2023-06-17T02:50:16.602Z,12.80
2023-06-17T02:52:48.299Z,12.80
2023-06-17T02:55:16.841Z,12.80
2023-06-17T02:57:44.844Z,12.80
2023-06-17T03:00:14.552Z,12.70
2023-06-17T03:02:44.103Z,12.70
2023-06-17T03:05:13.903Z,12.70
2023-06-17T03:07:43.246Z,12.70
2023-06-17T03:10:12.147Z,12.70
2023-06-17T03:12:46.631Z,12.70
2023-06-17T03:15:18.495Z,12.70
2023-06-17T03:17:48.196Z,12.70
2023-06-17T03:20:16.731Z,12.70
2023-06-17T03:22:45.223Z,12.70
2023-06-17T03:25:14.439Z,12.70
2023-06-17T03:27:42.805Z,12.70
2023-06-17T03:30:11.747Z,12.70
2023-06-17T03:32:39.851Z,12.70
2023-06-17T03:35:10.282Z,12.70
2023-06-17T03:37:38.390Z,12.70
2023-06-17T03:40:07.882Z,12.80
2023-06-17T03:42:37.543Z,12.80
2023-06-17T03:45:06.396Z,12.80
2023-06-17T03:47:34.688Z,12.80
2023-06-17T03:50:02.920Z,12.80
2023-06-17T03:52:33.038Z,12.80
2023-06-17T03:55:01.552Z,12.80
2023-06-17T03:57:29.622Z,12.90
2023-06-17T03:59:59.103Z,13.00
2023-06-17T04:02:27.189Z,13.00
2023-06-17T04:04:56.640Z,13.10
2023-06-17T04:07:24.730Z,13.20
2023-06-17T04:10:06.373Z,13.30
2023-06-17T04:12:35.536Z,13.30
2023-06-17T04:15:04.172Z,13.40
2023-06-17T04:17:32.233Z,13.50
2023-06-17T04:20:11.351Z,13.50
2023-06-17T04:22:41.155Z,13.60
2023-06-17T04:25:12.529Z,13.70
2023-06-17T04:27:45.670Z,13.70
2023-06-17T04:30:15.158Z,13.80
2023-06-17T04:32:43.903Z,13.90
2023-06-17T04:35:14.060Z,14.00
2023-06-17T04:37:54.816Z,14.10
2023-06-17T04:40:25.930Z,14.20
2023-06-17T04:42:54.472Z,14.30
2023-06-17T04:45:24.776Z,14.40
2023-06-17T04:47:58.063Z,14.50
2023-06-17T04:50:26.207Z,14.50
2023-06-17T04:52:54.226Z,14.60
2023-06-17T04:55:26.527Z,14.70
2023-06-17T04:57:55.086Z,14.80
2023-06-17T05:00:36.511Z,14.90
2023-06-17T05:03:05.025Z,14.90
2023-06-17T05:05:33.180Z,15.00
2023-06-17T05:08:01.426Z,15.00
2023-06-17T05:10:31.047Z,15.10
2023-06-17T05:12:59.186Z,15.10
2023-06-17T05:15:29.954Z,15.20
2023-06-17T05:17:58.918Z,15.20
2023-06-17T05:20:27.004Z,15.20
2023-06-17T05:22:55.011Z,15.30
2023-06-17T05:25:23.006Z,15.40
2023-06-17T05:27:52.638Z,15.40
2023-06-17T05:30:23.082Z,15.50
2023-06-17T05:32:53.803Z,15.60
2023-06-17T05:35:22.219Z,15.70
2023-06-17T05:37:50.253Z,15.80
2023-06-17T05:40:18.425Z,15.90
2023-06-17T05:42:46.615Z,16.00
2023-06-17T05:45:16.169Z,16.00
2023-06-17T05:47:44.356Z,16.10
2023-06-17T05:50:12.471Z,16.10
2023-06-17T05:52:42.875Z,16.30
2023-06-17T05:55:11.923Z,16.40
2023-06-17T05:57:40.015Z,16.70
2023-06-17T06:00:09.366Z,16.90
2023-06-17T06:02:46.404Z,17.10
2023-06-17T06:05:14.494Z,17.40
2023-06-17T06:07:44.641Z,17.60
2023-06-17T06:10:13.061Z,17.70
2023-06-17T06:12:45.585Z,17.90
2023-06-17T06:15:13.566Z,18.10
2023-06-17T06:17:41.665Z,18.40
2023-06-17T06:20:12.066Z,18.70
2023-06-17T06:22:40.244Z,19.00
2023-06-17T06:25:09.128Z,19.30
2023-06-17T06:27:37.282Z,19.40
2023-06-17T06:30:08.115Z,19.60
2023-06-17T06:32:40.911Z,19.70
2023-06-17T06:35:12.718Z,19.70
2023-06-17T06:37:40.848Z,19.70
2023-06-17T06:40:10.451Z,19.60
2023-06-17T06:42:39.852Z,19.40
2023-06-17T06:45:16.866Z,19.30
2023-06-17T06:47:46.152Z,19.10
2023-06-17T06:50:15.629Z,18.90
2023-06-17T06:52:43.912Z,18.70
2023-06-17T06:55:12.271Z,18.70
2023-06-17T06:57:40.771Z,18.70
2023-06-17T07:00:10.972Z,18.70
2023-06-17T07:02:40.670Z,18.60
2023-06-17T07:05:10.309Z,18.50
2023-06-17T07:07:49.570Z,18.50
2023-06-17T07:10:18.625Z,18.30
2023-06-17T07:12:47.585Z,18.30
2023-06-17T07:15:17.536Z,18.20
2023-06-17T07:17:45.652Z,18.20
2023-06-17T07:20:14.292Z,18.20
2023-06-17T07:22:43.875Z,18.20
2023-06-17T07:25:14.217Z,18.40
2023-06-17T07:27:43.307Z,18.60
2023-06-17T07:30:12.441Z,18.80
2023-06-17T07:32:40.560Z,18.90
2023-06-17T07:35:09.269Z,19.00
2023-06-17T07:37:37.574Z,19.00
2023-06-17T07:40:08.416Z,19.20
2023-06-17T07:42:39.016Z,19.30
2023-06-17T07:45:08.061Z,19.40
2023-06-17T07:47:36.058Z,19.60
2023-06-17T07:50:05.447Z,19.90
2023-06-17T07:52:36.227Z,20.10
2023-06-17T07:55:07.709Z,20.40
2023-06-17T07:57:37.786Z,20.70
2023-06-17T08:00:11.070Z,21.20
2023-06-17T08:02:44.989Z,21.70
2023-06-17T08:05:13.158Z,22.30
2023-06-17T08:07:41.203Z,22.60
2023-06-17T08:10:10.525Z,22.70
2023-06-17T08:12:40.197Z,22.80
2023-06-17T08:15:10.125Z,22.90
2023-06-17T08:17:38.711Z,23.00
2023-06-17T08:20:08.234Z,23.00
2023-06-17T08:22:37.161Z,23.00
2023-06-17T08:25:05.904Z,23.10
2023-06-17T08:27:34.603Z,23.00
2023-06-17T08:30:04.852Z,23.10
2023-06-17T08:32:32.895Z,23.00
2023-06-17T08:35:06.554Z,22.90
2023-06-17T08:37:35.756Z,22.90
2023-06-17T08:40:05.083Z,22.90
2023-06-17T08:42:33.958Z,22.90
2023-06-17T08:45:03.942Z,22.90
2023-06-17T08:47:32.338Z,22.90
2023-06-17T08:50:01.460Z,23.00
2023-06-17T08:52:30.988Z,23.00
2023-06-17T08:55:00.975Z,22.90
2023-06-17T08:57:29.331Z,22.80
2023-06-17T08:59:57.727Z,22.70
2023-06-17T09:02:28.725Z,22.60
2023-06-17T09:04:56.864Z,22.60
2023-06-17T09:07:26.650Z,22.50
2023-06-17T09:09:56.127Z,22.20
2023-06-17T09:12:25.635Z,22.00
2023-06-17T09:14:56.289Z,21.80
2023-06-17T09:17:32.402Z,21.70
2023-06-17T09:20:11.460Z,21.80
2023-06-17T09:22:44.256Z,22.00
2023-06-17T09:25:14.593Z,22.50
2023-06-17T09:30:24.444Z,23.10
2023-06-17T09:32:54.795Z,23.30
2023-06-17T09:35:23.142Z,23.40
2023-06-17T09:40:29.758Z,24.00
2023-06-17T09:43:16.605Z,24.40
2023-06-17T09:45:51.428Z,24.60
2023-06-17T09:48:21.747Z,24.50
2023-06-17T09:50:56.997Z,24.50
2023-06-17T09:53:27.300Z,24.50
2023-06-17T09:55:58.147Z,24.50
2023-06-17T09:58:30.273Z,24.50
2023-06-17T10:00:59.208Z,24.60
2023-06-17T10:03:28.720Z,24.70
2023-06-17T10:06:01.789Z,24.70
2023-06-17T10:08:32.283Z,24.50
2023-06-17T10:11:01.927Z,24.20
2023-06-17T10:13:33.717Z,23.90
2023-06-17T10:16:03.822Z,24.00
2023-06-17T10:18:36.673Z,24.30
2023-06-17T10:21:07.627Z,24.70
2023-06-17T10:23:37.337Z,25.00
2023-06-17T10:26:07.600Z,25.00
2023-06-17T10:28:47.047Z,24.80
2023-06-17T10:31:24.697Z,24.60
2023-06-17T10:33:55.868Z,24.30
2023-06-17T10:36:24.930Z,24.00
2023-06-17T10:38:57.978Z,24.00
2023-06-17T10:41:53.807Z,24.20
2023-06-17T10:44:27.403Z,24.50
2023-06-17T10:46:56.191Z,24.60
2023-06-17T10:49:26.304Z,24.50
2023-06-17T10:51:59.354Z,24.30
2023-06-17T10:54:31.939Z,24.20
2023-06-17T10:57:02.432Z,24.00
2023-06-17T10:59:32.414Z,23.80
2023-06-17T11:02:07.971Z,23.70
2023-06-17T11:04:42.205Z,23.60
2023-06-17T11:07:10.601Z,23.50
2023-06-17T11:09:38.946Z,23.50
2023-06-17T11:12:09.266Z,23.20
2023-06-17T11:14:38.737Z,23.00
2023-06-17T11:17:07.248Z,22.80
2023-06-17T11:19:36.926Z,22.60
2023-06-17T11:22:05.261Z,22.50
2023-06-17T11:24:34.038Z,22.50
2023-06-17T11:27:03.295Z,22.80
2023-06-17T11:29:32.279Z,23.20
2023-06-17T11:32:01.202Z,23.50
2023-06-17T11:34:33.124Z,23.60
2023-06-17T11:39:40.545Z,23.50
2023-06-17T11:42:10.461Z,23.20
2023-06-17T11:44:39.145Z,23.30
2023-06-17T11:47:08.568Z,23.50
2023-06-17T11:49:37.612Z,23.60
2023-06-17T11:52:10.664Z,23.40
2023-06-17T11:54:49.718Z,23.20
2023-06-17T11:57:22.624Z,23.20
2023-06-17T11:59:51.171Z,23.60
2023-06-17T12:02:20.085Z,24.00
2023-06-17T12:04:48.913Z,24.50
2023-06-17T12:07:16.952Z,25.00
2023-06-17T12:09:54.268Z,25.30
2023-06-17T12:12:33.984Z,25.60
2023-06-17T12:15:14.127Z,25.90
2023-06-17T12:17:52.790Z,25.90
2023-06-17T12:20:22.719Z,26.10
2023-06-17T12:22:52.213Z,26.30
2023-06-17T12:25:21.788Z,26.60
2023-06-17T12:27:51.396Z,26.60
2023-06-17T12:30:19.629Z,26.40
2023-06-17T12:32:47.670Z,26.10
2023-06-17T12:35:15.934Z,26.00
2023-06-17T12:37:45.177Z,25.80
2023-06-17T12:40:13.713Z,25.60
2023-06-17T12:42:43.161Z,25.50
2023-06-17T12:45:12.151Z,25.60
2023-06-17T12:47:40.532Z,25.80
2023-06-17T12:50:09.231Z,26.10
2023-06-17T12:52:37.366Z,26.00
2023-06-17T12:55:06.687Z,25.80
2023-06-17T12:57:35.260Z,25.90
2023-06-17T13:00:07.360Z,25.90
2023-06-17T13:02:36.966Z,26.10
2023-06-17T13:05:06.458Z,26.20
2023-06-17T13:07:34.595Z,26.20
2023-06-17T13:10:04.203Z,26.40
2023-06-17T13:12:32.273Z,26.50
2023-06-17T13:15:00.385Z,26.60
2023-06-17T13:17:29.759Z,26.60
2023-06-17T13:19:57.703Z,26.80
2023-06-17T13:22:26.737Z,26.70
2023-06-17T13:24:54.931Z,26.80
2023-06-17T13:27:23.051Z,26.60
2023-06-17T13:29:50.920Z,26.70
2023-06-17T13:32:19.790Z,26.80
2023-06-17T13:34:49.142Z,26.90
2023-06-17T13:37:17.197Z,26.90
2023-06-17T13:39:45.974Z,26.80
2023-06-17T13:42:13.922Z,26.80
2023-06-17T13:44:42.132Z,26.80
2023-06-17T13:47:10.352Z,26.90
2023-06-17T13:49:38.459Z,26.90
2023-06-17T13:52:09.924Z,26.90
2023-06-17T13:54:37.835Z,27.00
2023-06-17T13:57:06.359Z,27.00
2023-06-17T13:59:34.303Z,27.00
2023-06-17T14:02:02.220Z,27.10
2023-06-17T14:04:30.467Z,27.30
2023-06-17T14:06:58.519Z,27.30
2023-06-17T14:09:27.750Z,27.30
2023-06-17T14:11:55.757Z,27.20
2023-06-17T14:14:23.643Z,26.90
2023-06-17T14:16:51.721Z,26.90
2023-06-17T14:19:20.540Z,27.00
2023-06-17T14:21:56.525Z,27.10
2023-06-17T14:24:24.496Z,27.00
2023-06-17T14:27:10.582Z,26.90
2023-06-17T14:29:39.055Z,26.90
2023-06-17T14:32:07.809Z,26.90
2023-06-17T14:34:35.784Z,26.70
2023-06-17T14:37:04.114Z,26.60
2023-06-17T14:39:32.556Z,26.50
2023-06-17T14:42:02.009Z,26.40
2023-06-17T14:44:29.930Z,26.40
2023-06-17T14:46:57.845Z,26.60
2023-06-17T14:49:25.848Z,26.80
2023-06-17T14:51:54.652Z,27.00
2023-06-17T14:54:22.563Z,27.20
2023-06-17T14:56:50.537Z,27.30
2023-06-17T14:59:19.777Z,27.40
2023-06-17T15:01:47.912Z,27.40
2023-06-17T15:04:16.207Z,27.20
2023-06-17T15:06:44.259Z,27.10
2023-06-17T15:09:27.834Z,27.10
2023-06-17T15:11:57.064Z,27.10
2023-06-17T15:14:28.499Z,26.90
2023-06-17T15:16:56.522Z,26.60
2023-06-17T15:19:24.892Z,26.40
2023-06-17T15:21:52.873Z,26.40
2023-06-17T15:24:20.958Z,26.40
2023-06-17T15:26:49.005Z,26.30
2023-06-17T15:29:17.651Z,26.10
2023-06-17T15:31:46.911Z,26.00
2023-06-17T15:34:14.775Z,25.90
2023-06-17T15:36:42.948Z,25.70
2023-06-17T15:39:19.144Z,25.60
2023-06-17T15:41:47.775Z,25.30
2023-06-17T15:44:16.061Z,25.20
2023-06-17T15:46:44.630Z,24.90
2023-06-17T15:49:14.466Z,24.80
2023-06-17T15:51:42.438Z,24.80
2023-06-17T15:54:11.307Z,24.70
2023-06-17T15:56:40.087Z,24.60
2023-06-17T15:59:08.297Z,24.50
2023-06-17T16:01:36.309Z,24.40
2023-06-17T16:04:36.050Z,24.30
2023-06-17T16:07:06.749Z,24.10
2023-06-17T16:09:37.435Z,23.90
2023-06-17T16:12:06.676Z,23.90
2023-06-17T16:14:36.852Z,23.80
2023-06-17T16:17:07.160Z,23.70
2023-06-17T16:19:37.122Z,23.80
2023-06-17T16:22:06.325Z,23.90
2023-06-17T16:24:34.601Z,24.10
2023-06-17T16:27:02.776Z,24.20
2023-06-17T16:29:32.032Z,24.30
2023-06-17T16:32:00.133Z,24.30
2023-06-17T16:34:28.131Z,24.30
2023-06-17T16:36:58.115Z,24.30
2023-06-17T16:39:26.426Z,24.30
2023-06-17T16:41:54.540Z,24.20
2023-06-17T16:44:22.475Z,24.10
2023-06-17T16:46:50.516Z,24.00
2023-06-17T16:49:18.502Z,23.90
2023-06-17T16:51:46.624Z,23.60
2023-06-17T16:54:16.017Z,23.60
2023-06-17T16:56:44.020Z,23.50
2023-06-17T16:59:12.013Z,23.50
2023-06-17T17:01:41.747Z,23.50
2023-06-17T17:04:12.015Z,23.40
2023-06-17T17:06:40.099Z,23.40
2023-06-17T17:09:08.258Z,23.40
2023-06-17T17:11:38.251Z,23.30
2023-06-17T17:14:06.435Z,23.30
2023-06-17T17:16:34.532Z,23.30
2023-06-17T17:19:02.486Z,23.30
2023-06-17T17:21:30.489Z,23.20
2023-06-17T17:23:58.561Z,23.20
2023-06-17T17:26:27.650Z,23.20
2023-06-17T17:28:57.558Z,23.20
2023-06-17T17:31:25.646Z,23.10
2023-06-17T17:33:53.815Z,23.00
2023-06-17T17:36:21.725Z,23.00
2023-06-17T17:38:49.671Z,22.90
2023-06-17T17:41:17.732Z,22.80
2023-06-17T17:43:45.662Z,22.70
2023-06-17T17:46:15.066Z,22.60
2023-06-17T17:48:43.003Z,22.50
2023-06-17T17:51:10.971Z,22.30
2023-06-17T17:53:38.894Z,22.20
2023-06-17T17:56:06.868Z,22.20
2023-06-17T17:58:34.797Z,22.10
2023-06-17T18:01:04.438Z,22.00
2023-06-17T18:03:33.855Z,22.00
2023-06-17T18:06:01.934Z,22.00
2023-06-17T18:08:29.845Z,21.90
2023-06-17T18:10:57.761Z,21.90
2023-06-17T18:13:27.720Z,21.80
2023-06-17T18:15:57.353Z,21.80
2023-06-17T18:18:25.280Z,21.70
2023-06-17T18:20:54.556Z,21.70
2023-06-17T18:23:22.441Z,21.60
2023-06-17T18:25:50.503Z,21.60
2023-06-17T18:28:18.440Z,21.60
2023-06-17T18:30:46.476Z,21.50
2023-06-17T18:33:14.364Z,21.50
2023-06-17T18:35:42.234Z,21.40
2023-06-17T18:38:11.850Z,21.30
2023-06-17T18:40:39.805Z,21.20
2023-06-17T18:43:08.303Z,21.20
2023-06-17T18:45:37.765Z,21.10
2023-06-17T18:48:07.099Z,21.00
2023-06-17T18:50:37.072Z,20.90
2023-06-17T18:53:05.082Z,20.80
2023-06-17T18:55:34.405Z,20.70
2023-06-17T18:58:02.554Z,20.60
2023-06-17T19:00:32.123Z,20.50
2023-06-17T19:03:00.311Z,20.40
2023-06-17T19:05:28.400Z,20.30
2023-06-17T19:07:56.402Z,20.20
2023-06-17T19:10:24.515Z,20.10
2023-06-17T19:12:53.837Z,20.00
2023-06-17T19:15:22.431Z,19.80
2023-06-17T19:17:58.640Z,19.80
2023-06-17T19:20:26.778Z,19.60
2023-06-17T19:22:54.734Z,19.60
2023-06-17T19:25:22.781Z,19.50
2023-06-17T19:27:50.656Z,19.30
2023-06-17T19:30:20.378Z,19.10
2023-06-17T19:32:48.528Z,19.10
2023-06-17T19:35:16.558Z,18.90
2023-06-17T19:37:44.500Z,18.80
2023-06-17T19:40:13.628Z,18.70
2023-06-17T19:42:41.526Z,18.60
2023-06-17T19:45:10.840Z,18.50
2023-06-17T19:47:40.202Z,18.50
2023-06-17T19:50:08.980Z,18.30
2023-06-17T19:52:37.503Z,18.20
2023-06-17T19:55:06.372Z,18.00
2023-06-17T19:57:34.368Z,17.80
2023-06-17T20:00:02.308Z,17.60
2023-06-17T20:02:41.596Z,17.50
2023-06-17T20:05:11.366Z,17.30
2023-06-17T20:07:39.693Z,17.20
2023-06-17T20:10:08.399Z,17.00
2023-06-17T20:12:36.355Z,16.90
2023-06-17T20:15:04.508Z,16.80
2023-06-17T20:17:32.433Z,16.60
2023-06-17T20:20:02.226Z,16.50
2023-06-17T20:22:30.238Z,16.40
2023-06-17T20:24:58.140Z,16.40
2023-06-17T20:27:26.029Z,16.30
2023-06-17T20:29:54.298Z,16.30
2023-06-17T20:32:22.271Z,16.10
2023-06-17T20:34:50.291Z,16.00
2023-06-17T20:37:19.562Z,15.90
2023-06-17T20:39:47.467Z,15.80
2023-06-17T20:42:15.406Z,15.70
2023-06-17T20:44:43.407Z,15.70
2023-06-17T20:47:11.748Z,15.60
2023-06-17T20:49:39.743Z,15.60
2023-06-17T20:52:08.246Z,15.50
2023-06-17T20:54:38.065Z,15.50
2023-06-17T20:57:06.537Z,15.50
2023-06-17T20:59:34.499Z,15.40
2023-06-17T21:02:02.521Z,15.40
2023-06-17T21:04:30.568Z,15.40
2023-06-17T21:06:58.473Z,15.30
2023-06-17T21:09:27.070Z,15.20
2023-06-17T21:11:56.339Z,15.20
2023-06-17T21:14:24.202Z,15.10
2023-06-17T21:16:53.782Z,15.00
2023-06-17T21:19:21.997Z,14.90
2023-06-17T21:21:49.915Z,14.80
2023-06-17T21:24:17.883Z,14.80
2023-06-17T21:26:45.893Z,14.60
2023-06-17T21:29:15.172Z,14.60
2023-06-17T21:31:43.172Z,14.40
2023-06-17T21:34:11.204Z,14.30
2023-06-17T21:36:39.224Z,14.30
2023-06-17T21:39:07.166Z,14.20
2023-06-17T21:41:35.201Z,14.10
2023-06-17T21:44:03.091Z,14.10
2023-06-17T21:46:32.952Z,14.00
2023-06-17T21:49:00.992Z,13.90
2023-06-17T21:51:28.982Z,13.80
2023-06-17T21:53:57.165Z,13.80
2023-06-17T21:56:25.120Z,13.70
2023-06-17T21:58:53.037Z,13.70
2023-06-17T22:01:21.241Z,13.60
2023-06-17T22:03:50.589Z,13.60
2023-06-17T22:06:18.636Z,13.50
2023-06-17T22:08:46.544Z,13.50
2023-06-17T22:11:14.453Z,13.40
2023-06-17T22:13:42.369Z,13.40
2023-06-17T22:16:12.403Z,13.30
2023-06-17T22:18:40.541Z,13.30
2023-06-17T22:21:09.912Z,13.30
2023-06-17T22:23:37.834Z,13.20
2023-06-17T22:26:05.728Z,13.20
2023-06-17T22:28:33.648Z,13.10
2023-06-17T22:31:01.568Z,13.00
2023-06-17T22:33:29.519Z,13.00
2023-06-17T22:35:57.423Z,12.80
2023-06-17T22:38:26.669Z,12.80
2023-06-17T22:40:54.589Z,12.70
2023-06-17T22:43:22.601Z,12.60
2023-06-17T22:45:50.511Z,12.60
2023-06-17T22:48:18.539Z,12.60
2023-06-17T22:50:46.916Z,12.50
2023-06-17T22:53:14.903Z,12.40
2023-06-17T22:55:44.386Z,12.40
2023-06-17T22:58:13.248Z,12.30
2023-06-17T23:00:41.385Z,12.30
2023-06-17T23:03:09.987Z,12.30
2023-06-17T23:05:38.076Z,12.30
2023-06-17T23:08:06.281Z,12.30
2023-06-17T23:10:36.339Z,12.30
2023-06-17T23:13:05.704Z,12.30
2023-06-17T23:15:34.445Z,12.20
2023-06-17T23:18:02.395Z,12.20
2023-06-17T23:20:30.626Z,12.10
2023-06-17T23:22:58.534Z,12.10
2023-06-17T23:25:27.482Z,12.00
2023-06-17T23:27:57.568Z,12.00
2023-06-17T23:30:26.883Z,12.00
2023-06-17T23:32:55.078Z,12.00
2023-06-17T23:35:23.268Z,12.00
2023-06-17T23:37:51.271Z,12.00
2023-06-17T23:40:19.555Z,12.00
2023-06-17T23:42:47.813Z,12.00
2023-06-17T23:45:16.514Z,12.00
2023-06-17T23:47:45.989Z,12.00
2023-06-17T23:50:13.962Z,12.00
2023-06-17T23:52:41.891Z,12.00
2023-06-17T23:55:10.558Z,12.00
2023-06-17T23:57:38.490Z,12.00
